Time,TemperatureF,DewpointF,PressureIn,WindDirection,WindDirectionDegrees,WindSpeedMPH,WindSpeedGustMPH,Humidity,HourlyPrecipIn,Conditions,Clouds,dailyrainin,SoftwareType,DateUTC
2013-01-28 00:00:00,72.1,66.7,30.15,NE,45,4.0,9.0,83,0.00,,,0.00,meteohub,2013-01-28 05:00:00,
2013-01-28 00:02:00,72.1,66.7,30.14,East,90,8.0,10.0,83,0.00,,,0.00,meteohub,2013-01-28 05:02:00,
2013-01-28 00:03:00,72.1,66.7,30.14,East,90,6.0,10.0,83,0.00,,,0.00,meteohub,2013-01-28 05:03:00,
2013-01-28 00:04:00,72.1,66.7,30.14,NE,45,8.0,10.0,83,0.00,,,0.00,meteohub,2013-01-28 05:04:00,
2013-01-28 00:09:00,72.1,66.7,30.14,East,90,3.0,10.0,83,0.00,,,0.00,meteohub,2013-01-28 05:09:00,
2013-01-28 00:14:00,72.1,66.7,30.15,NE,45,4.0,10.0,83,0.00,,,0.00,meteohub,2013-01-28 05:14:00,
2013-01-28 00:19:00,72.3,66.6,30.14,East,90,5.0,10.0,82,0.00,,,0.00,meteohub,2013-01-28 05:19:00,
2013-01-28 00:24:00,72.3,66.6,30.14,NE,45,4.0,10.0,82,0.00,,,0.00,meteohub,2013-01-28 05:24:00,
2013-01-28 00:29:00,72.5,66.7,30.14,East,90,4.0,10.0,82,0.00,,,0.00,meteohub,2013-01-28 05:29:00,
2013-01-28 00:34:00,72.5,66.7,30.14,NE,45,6.0,9.0,82,0.00,,,0.00,meteohub,2013-01-28 05:34:00,
2013-01-28 00:40:00,72.5,66.7,30.14,North,0,5.0,9.0,82,0.00,,,0.00,meteohub,2013-01-28 05:40:00,
2013-01-28 00:45:00,72.7,66.9,30.14,North,0,4.0,9.0,82,0.00,,,0.00,meteohub,2013-01-28 05:45:00,
2013-01-28 00:50:00,72.7,66.9,30.14,SE,135,6.0,7.0,82,0.00,,,0.00,meteohub,2013-01-28 05:50:00,
2013-01-28 00:55:00,72.7,66.9,30.14,SE,135,6.0,6.0,82,0.00,,,0.00,meteohub,2013-01-28 05:55:00,
2013-01-28 01:00:00,72.9,67.1,30.14,East,90,8.0,8.0,82,0.00,,,0.00,meteohub,2013-01-28 06:00:00,
2013-01-28 01:05:00,72.9,67.1,30.14,East,90,8.0,8.0,82,0.00,,,0.00,meteohub,2013-01-28 06:05:00,
2013-01-28 01:10:00,72.9,67.1,30.14,East,90,13.0,13.0,82,0.00,,,0.00,meteohub,2013-01-28 06:10:00,
2013-01-28 01:15:00,73.0,67.3,30.14,East,90,10.0,13.0,82,0.00,,,0.00,meteohub,2013-01-28 06:15:00,
2013-01-28 01:20:00,72.9,67.1,30.14,East,90,11.0,13.0,82,0.00,,,0.00,meteohub,2013-01-28 06:20:00,
2013-01-28 01:26:00,72.9,66.7,30.14,East,90,7.0,13.0,81,0.00,,,0.00,meteohub,2013-01-28 06:26:00,
2013-01-28 01:31:00,72.9,69.4,30.14,NE,45,3.0,13.0,89,0.00,,,0.00,meteohub,2013-01-28 06:31:00,
2013-01-28 01:36:00,73.0,66.9,30.14,East,90,6.0,11.0,81,0.57,,,0.57,meteohub,2013-01-28 06:36:00,
2013-01-28 01:41:00,72.9,66.4,30.13,East,90,9.0,10.0,80,0.57,,,0.57,meteohub,2013-01-28 06:41:00,
2013-01-28 01:46:00,73.0,66.6,30.13,East,90,10.0,11.0,80,0.57,,,0.57,meteohub,2013-01-28 06:46:00,
2013-01-28 01:52:00,72.9,66.4,30.13,ESE,113,12.0,12.0,80,0.57,,,0.57,meteohub,2013-01-28 06:52:00,
2013-01-28 01:57:00,72.9,66.4,30.13,East,90,10.0,12.0,80,0.57,,,0.57,meteohub,2013-01-28 06:57:00,
2013-01-28 02:02:00,72.7,66.6,30.13,East,90,8.0,12.0,81,0.57,,,0.57,meteohub,2013-01-28 07:02:00,
2013-01-28 02:07:00,72.7,66.6,30.13,East,90,9.0,12.0,81,0.57,,,0.57,meteohub,2013-01-28 07:07:00,
2013-01-28 02:12:00,72.7,66.6,30.13,NE,45,7.0,13.0,81,0.57,,,0.57,meteohub,2013-01-28 07:12:00,
2013-01-28 02:17:00,72.5,66.4,30.13,NE,45,6.0,13.0,81,0.57,,,0.57,meteohub,2013-01-28 07:17:00,
2013-01-28 02:22:00,72.3,66.6,30.13,SE,135,5.0,13.0,82,0.57,,,0.57,meteohub,2013-01-28 07:22:00,
2013-01-28 02:27:00,72.1,66.4,30.13,NE,45,9.0,11.0,82,0.57,,,0.57,meteohub,2013-01-28 07:27:00,
2013-01-28 02:32:00,72.1,66.4,30.13,East,90,6.0,9.0,82,0.57,,,0.57,meteohub,2013-01-28 07:32:00,
2013-01-28 02:37:00,72.3,66.2,30.13,East,90,10.0,10.0,81,0.00,,,0.57,meteohub,2013-01-28 07:37:00,
2013-01-28 02:42:00,72.3,66.2,30.13,East,90,11.0,11.0,81,0.00,,,0.57,meteohub,2013-01-28 07:42:00,
2013-01-28 02:47:00,72.5,66.4,30.12,East,90,7.0,12.0,81,0.00,,,0.57,meteohub,2013-01-28 07:47:00,
2013-01-28 02:52:00,72.3,66.2,30.12,East,90,4.0,12.0,81,0.00,,,0.57,meteohub,2013-01-28 07:52:00,
2013-01-28 02:57:00,72.1,66.0,30.13,ESE,113,7.0,12.0,81,0.00,,,0.57,meteohub,2013-01-28 07:57:00,
2013-01-28 03:02:00,72.3,66.2,30.12,East,90,6.0,10.0,81,0.00,,,0.57,meteohub,2013-01-28 08:02:00,
2013-01-28 03:07:00,72.3,66.2,30.13,East,90,4.0,9.0,81,0.00,,,0.57,meteohub,2013-01-28 08:07:00,
2013-01-28 03:12:00,72.3,66.2,30.12,NE,45,6.0,9.0,81,0.00,,,0.57,meteohub,2013-01-28 08:12:00,
2013-01-28 03:17:00,72.3,66.2,30.12,SE,135,8.0,8.0,81,0.00,,,0.57,meteohub,2013-01-28 08:17:00,
2013-01-28 03:22:00,72.5,66.0,30.12,East,90,5.0,11.0,80,0.00,,,0.57,meteohub,2013-01-28 08:22:00,
2013-01-28 03:27:00,72.5,66.0,30.12,East,90,11.0,11.0,80,0.00,,,0.57,meteohub,2013-01-28 08:27:00,
2013-01-28 03:33:00,72.7,66.6,30.12,East,90,7.0,11.0,81,0.00,,,0.57,meteohub,2013-01-28 08:33:00,
2013-01-28 03:38:00,72.7,66.2,30.12,East,90,7.0,11.0,80,0.00,,,0.57,meteohub,2013-01-28 08:38:00,
2013-01-28 03:43:00,72.7,66.2,30.13,SE,135,7.0,11.0,80,0.00,,,0.57,meteohub,2013-01-28 08:43:00,
2013-01-28 03:48:00,72.7,66.2,30.13,East,90,6.0,11.0,80,0.00,,,0.57,meteohub,2013-01-28 08:48:00,
2013-01-28 03:53:00,72.7,66.2,30.13,NE,45,7.0,9.0,80,0.00,,,0.57,meteohub,2013-01-28 08:53:00,
2013-01-28 03:58:00,72.5,66.0,30.12,NE,45,4.0,13.0,80,0.00,,,0.57,meteohub,2013-01-28 08:58:00,
2013-01-28 04:04:00,72.5,66.0,30.12,East,90,13.0,13.0,80,0.00,,,0.57,meteohub,2013-01-28 09:04:00,
2013-01-28 04:09:00,72.5,66.0,30.12,East,90,8.0,13.0,80,0.00,,,0.57,meteohub,2013-01-28 09:09:00,
2013-01-28 04:14:00,72.7,66.2,30.12,East,90,8.0,13.0,80,0.00,,,0.57,meteohub,2013-01-28 09:14:00,
2013-01-28 04:19:00,72.7,66.2,30.12,East,90,8.0,13.0,80,0.00,,,0.57,meteohub,2013-01-28 09:19:00,
2013-01-28 04:24:00,72.7,66.2,30.12,East,90,8.0,8.0,80,0.00,,,0.57,meteohub,2013-01-28 09:24:00,
2013-01-28 04:40:00,72.0,65.1,30.13,East,90,4.0,-999.0,79,0.00,,,0.57,meteohub,2013-01-28 09:40:00,
2013-01-28 04:45:00,72.0,65.1,30.12,East,90,4.0,-999.0,79,0.00,,,0.57,meteohub,2013-01-28 09:45:00,
2013-01-28 04:50:00,72.0,65.1,30.12,East,90,4.0,4.0,79,0.00,,,0.57,meteohub,2013-01-28 09:50:00,
2013-01-28 05:39:00,71.6,64.0,30.12,East,90,3.0,-999.0,77,0.00,,,0.57,meteohub,2013-01-28 10:39:00,
2013-01-28 05:44:00,71.4,63.9,30.13,East,90,4.0,4.0,77,0.00,,,0.57,meteohub,2013-01-28 10:44:00,
2013-01-28 05:49:00,71.4,64.2,30.13,SE,135,4.0,4.0,78,0.00,,,0.57,meteohub,2013-01-28 10:49:00,
2013-01-28 05:54:00,71.2,64.4,30.13,East,90,5.0,5.0,79,0.00,,,0.57,meteohub,2013-01-28 10:54:00,
2013-01-28 05:59:00,71.2,64.4,30.13,East,90,5.0,5.0,79,0.00,,,0.57,meteohub,2013-01-28 10:59:00,
2013-01-28 06:04:00,71.6,64.8,30.13,East,90,3.0,5.0,79,0.00,,,0.57,meteohub,2013-01-28 11:04:00,
2013-01-28 06:10:00,71.4,64.6,30.13,East,90,4.0,6.0,79,0.00,,,0.57,meteohub,2013-01-28 11:10:00,
2013-01-28 06:15:00,71.4,64.6,30.14,East,90,4.0,6.0,79,0.00,,,0.57,meteohub,2013-01-28 11:15:00,
2013-01-28 06:20:00,71.4,64.6,30.14,East,90,4.0,6.0,79,0.00,,,0.57,meteohub,2013-01-28 11:20:00,
2013-01-28 06:39:00,71.2,65.1,30.14,East,90,3.0,-999.0,81,0.00,,,0.57,meteohub,2013-01-28 11:39:00,
2013-01-28 06:44:00,71.2,65.1,30.14,East,90,5.0,-999.0,81,0.00,,,0.57,meteohub,2013-01-28 11:44:00,
2013-01-28 06:49:00,71.2,65.1,30.14,SE,135,4.0,7.0,81,0.00,,,0.57,meteohub,2013-01-28 11:49:00,
2013-01-28 06:54:00,71.2,65.5,30.14,East,90,6.0,7.0,82,0.00,,,0.57,meteohub,2013-01-28 11:54:00,
2013-01-28 06:59:00,71.2,65.5,30.15,East,90,7.0,7.0,82,0.00,,,0.57,meteohub,2013-01-28 11:59:00,
2013-01-28 07:05:00,71.2,65.5,30.15,East,90,7.0,7.0,82,0.00,,,0.57,meteohub,2013-01-28 12:05:00,
2013-01-28 07:10:00,71.2,65.5,30.16,East,90,7.0,7.0,82,0.00,,,0.57,meteohub,2013-01-28 12:10:00,
2013-01-28 07:15:00,71.1,65.7,30.15,SE,135,4.0,7.0,83,0.00,,,0.57,meteohub,2013-01-28 12:15:00,
2013-01-28 07:20:00,71.1,65.7,30.15,East,90,3.0,7.0,83,0.00,,,0.57,meteohub,2013-01-28 12:20:00,
2013-01-28 07:25:00,71.2,65.8,30.16,East,90,4.0,7.0,83,0.00,,,0.57,meteohub,2013-01-28 12:25:00,
2013-01-28 07:30:00,71.6,65.8,30.16,North,0,5.0,5.0,82,0.00,,,0.57,meteohub,2013-01-28 12:30:00,
2013-01-28 07:35:00,71.8,66.0,30.16,NE,45,5.0,5.0,82,0.00,,,0.57,meteohub,2013-01-28 12:35:00,
2013-01-28 07:40:00,72.9,66.0,30.16,East,90,6.0,8.0,79,0.00,,,0.57,meteohub,2013-01-28 12:40:00,
2013-01-28 07:46:00,73.6,65.8,30.16,East,90,4.0,8.0,77,0.00,,,0.57,meteohub,2013-01-28 12:46:00,
2013-01-28 07:51:00,74.1,66.0,30.16,East,90,4.0,8.0,76,0.00,,,0.57,meteohub,2013-01-28 12:51:00,
2013-01-28 07:56:00,74.8,66.0,30.16,SE,135,5.0,10.0,74,0.00,,,0.57,meteohub,2013-01-28 12:56:00,
2013-01-28 08:01:00,75.2,66.4,30.16,North,0,4.0,10.0,74,0.00,,,0.57,meteohub,2013-01-28 13:01:00,
2013-01-28 08:06:00,75.7,66.4,30.16,SE,135,4.0,8.0,73,0.00,,,0.57,meteohub,2013-01-28 13:06:00,
2013-01-28 08:11:00,75.7,65.7,30.16,ESE,113,9.0,11.0,71,0.00,,,0.57,meteohub,2013-01-28 13:11:00,
2013-01-28 08:16:00,75.9,65.8,30.17,East,90,10.0,11.0,71,0.00,,,0.57,meteohub,2013-01-28 13:16:00,
2013-01-28 08:21:00,76.3,66.2,30.17,SE,135,7.0,11.0,71,0.00,,,0.57,meteohub,2013-01-28 13:21:00,
2013-01-28 08:26:00,76.3,65.8,30.17,East,90,12.0,13.0,70,0.00,,,0.57,meteohub,2013-01-28 13:26:00,
2013-01-28 08:31:00,76.5,66.4,30.16,East,90,11.0,14.0,71,0.00,,,0.57,meteohub,2013-01-28 13:31:00,
2013-01-28 08:36:00,76.3,66.2,30.17,East,90,11.0,14.0,71,0.00,,,0.57,meteohub,2013-01-28 13:36:00,
2013-01-28 08:42:00,76.8,66.7,30.17,North,0,12.0,14.0,71,0.00,,,0.57,meteohub,2013-01-28 13:42:00,
2013-01-28 08:47:00,77.0,66.9,30.17,East,90,10.0,12.0,71,0.00,,,0.57,meteohub,2013-01-28 13:47:00,
2013-01-28 08:52:00,77.5,66.6,30.17,SE,135,11.0,12.0,69,0.00,,,0.57,meteohub,2013-01-28 13:52:00,
2013-01-28 08:57:00,77.9,66.6,30.17,NE,45,11.0,12.0,68,0.00,,,0.57,meteohub,2013-01-28 13:57:00,
2013-01-28 09:02:00,77.5,66.2,30.17,SE,135,10.0,13.0,68,0.00,,,0.57,meteohub,2013-01-28 14:02:00,
2013-01-28 09:07:00,77.0,65.7,30.18,East,90,15.0,15.0,68,0.00,,,0.57,meteohub,2013-01-28 14:07:00,
2013-01-28 09:12:00,76.6,65.7,30.17,East,90,12.0,15.0,69,0.00,,,0.57,meteohub,2013-01-28 14:12:00,
2013-01-28 09:17:00,77.2,65.8,30.18,East,90,11.0,15.0,68,0.00,,,0.57,meteohub,2013-01-28 14:17:00,
2013-01-28 09:22:00,77.5,66.6,30.18,East,90,11.0,15.0,69,0.00,,,0.57,meteohub,2013-01-28 14:22:00,
2013-01-28 09:27:00,78.1,66.7,30.18,NE,45,11.0,15.0,68,0.00,,,0.57,meteohub,2013-01-28 14:27:00,
2013-01-28 09:32:00,78.1,66.2,30.19,East,90,11.0,12.0,67,0.00,,,0.57,meteohub,2013-01-28 14:32:00,
2013-01-28 09:38:00,77.9,66.0,30.19,East,90,11.0,17.0,67,0.00,,,0.57,meteohub,2013-01-28 14:38:00,
2013-01-28 09:43:00,78.4,66.2,30.19,East,90,9.0,17.0,66,0.00,,,0.57,meteohub,2013-01-28 14:43:00,
2013-01-28 09:48:00,78.3,66.7,30.19,North,0,6.0,17.0,68,0.00,,,0.57,meteohub,2013-01-28 14:48:00,
2013-01-28 09:53:00,77.2,66.2,30.19,NE,45,6.0,17.0,69,0.00,,,0.57,meteohub,2013-01-28 14:53:00,
2013-01-28 09:58:00,76.6,66.2,30.20,East,90,8.0,15.0,70,0.00,,,0.57,meteohub,2013-01-28 14:58:00,
2013-01-28 10:03:00,77.7,65.8,30.19,ESE,113,15.0,15.0,67,0.00,,,0.57,meteohub,2013-01-28 15:03:00,
2013-01-28 10:09:00,78.4,66.2,30.20,East,90,10.0,15.0,66,0.00,,,0.57,meteohub,2013-01-28 15:09:00,
2013-01-28 10:14:00,78.8,66.0,30.19,SE,135,8.0,15.0,65,0.00,,,0.57,meteohub,2013-01-28 15:14:00,
2013-01-28 10:19:00,79.0,65.8,30.19,East,90,11.0,15.0,64,0.00,,,0.57,meteohub,2013-01-28 15:19:00,
2013-01-28 10:24:00,78.4,66.2,30.20,East,90,14.0,15.0,66,0.00,,,0.57,meteohub,2013-01-28 15:24:00,
2013-01-28 10:29:00,79.0,66.6,30.20,East,90,11.0,15.0,66,0.00,,,0.57,meteohub,2013-01-28 15:29:00,
2013-01-28 10:34:00,78.1,64.9,30.20,NE,45,9.0,15.0,64,0.00,,,0.57,meteohub,2013-01-28 15:34:00,
2013-01-28 10:39:00,78.4,66.2,30.19,East,90,14.0,15.0,66,0.00,,,0.57,meteohub,2013-01-28 15:39:00,
2013-01-28 10:45:00,77.7,65.5,30.20,ESE,113,13.0,15.0,66,0.00,,,0.57,meteohub,2013-01-28 15:45:00,
2013-01-28 10:50:00,78.3,66.0,30.19,East,90,12.0,18.0,66,0.00,,,0.57,meteohub,2013-01-28 15:50:00,
2013-01-28 10:55:00,78.4,66.6,30.19,East,90,5.0,18.0,67,0.00,,,0.57,meteohub,2013-01-28 15:55:00,
2013-01-28 11:00:00,78.8,66.0,30.19,East,90,13.0,18.0,65,0.00,,,0.57,meteohub,2013-01-28 16:00:00,
2013-01-28 11:05:00,78.4,65.7,30.19,East,90,14.0,17.0,65,0.00,,,0.57,meteohub,2013-01-28 16:05:00,
2013-01-28 11:10:00,78.4,66.2,30.19,NE,45,11.0,17.0,66,0.00,,,0.57,meteohub,2013-01-28 16:10:00,
2013-01-28 11:15:00,78.8,66.6,30.19,East,90,6.0,15.0,66,0.00,,,0.57,meteohub,2013-01-28 16:15:00,
2013-01-28 11:20:00,79.2,64.9,30.19,East,90,10.0,14.0,62,0.00,,,0.57,meteohub,2013-01-28 16:20:00,
2013-01-28 11:26:00,79.3,65.1,30.19,SE,135,11.0,13.0,62,0.00,,,0.57,meteohub,2013-01-28 16:26:00,
2013-01-28 11:31:00,79.3,65.1,30.19,SE,135,15.0,15.0,62,0.00,,,0.57,meteohub,2013-01-28 16:31:00,
2013-01-28 11:36:00,78.8,65.7,30.19,NE,45,6.0,15.0,64,0.00,,,0.57,meteohub,2013-01-28 16:36:00,
2013-01-28 11:41:00,79.5,65.3,30.19,East,90,7.0,15.0,62,0.00,,,0.57,meteohub,2013-01-28 16:41:00,
2013-01-28 11:46:00,79.5,64.9,30.19,East,90,12.0,15.0,61,0.00,,,0.57,meteohub,2013-01-28 16:46:00,
2013-01-28 11:51:00,78.8,64.2,30.18,East,90,12.0,16.0,61,0.00,,,0.57,meteohub,2013-01-28 16:51:00,
2013-01-28 11:56:00,78.8,64.8,30.19,North,0,7.0,16.0,62,0.00,,,0.57,meteohub,2013-01-28 16:56:00,
2013-01-28 12:01:00,79.3,65.1,30.18,SE,135,8.0,16.0,62,0.00,,,0.57,meteohub,2013-01-28 17:01:00,
2013-01-28 12:07:00,79.2,64.9,30.17,East,90,10.0,15.0,62,0.00,,,0.57,meteohub,2013-01-28 17:07:00,
2013-01-28 12:12:00,78.8,64.2,30.18,East,90,11.0,15.0,61,0.00,,,0.57,meteohub,2013-01-28 17:12:00,
2013-01-28 12:17:00,79.0,64.8,30.18,NE,45,10.0,15.0,62,0.00,,,0.57,meteohub,2013-01-28 17:17:00,
2013-01-28 12:22:00,79.0,65.8,30.17,East,90,11.0,15.0,64,0.00,,,0.57,meteohub,2013-01-28 17:22:00,
2013-01-28 12:27:00,79.5,65.8,30.17,East,90,5.0,15.0,63,0.00,,,0.57,meteohub,2013-01-28 17:27:00,
2013-01-28 12:32:00,79.0,65.8,30.17,East,90,8.0,15.0,64,0.00,,,0.57,meteohub,2013-01-28 17:32:00,
2013-01-28 12:37:00,79.2,64.9,30.16,East,90,15.0,15.0,62,0.00,,,0.57,meteohub,2013-01-28 17:37:00,
2013-01-28 12:42:00,79.3,65.1,30.16,East,90,9.0,15.0,62,0.00,,,0.57,meteohub,2013-01-28 17:42:00,
2013-01-28 12:47:00,78.6,64.6,30.16,SE,135,11.0,15.0,62,0.00,,,0.57,meteohub,2013-01-28 17:47:00,
2013-01-28 12:53:00,79.3,65.1,30.16,East,90,11.0,15.0,62,0.00,,,0.57,meteohub,2013-01-28 17:53:00,
2013-01-28 12:58:00,79.3,64.8,30.15,SE,135,8.0,15.0,61,0.00,,,0.57,meteohub,2013-01-28 17:58:00,
2013-01-28 13:03:00,79.2,64.0,30.15,East,90,8.0,15.0,60,0.00,,,0.57,meteohub,2013-01-28 18:03:00,
2013-01-28 13:08:00,79.2,64.0,30.15,NE,45,13.0,15.0,60,0.00,,,0.57,meteohub,2013-01-28 18:08:00,
2013-01-28 13:13:00,79.0,64.4,30.15,SE,135,17.0,17.0,61,0.00,,,0.57,meteohub,2013-01-28 18:13:00,
2013-01-28 13:18:00,79.2,63.7,30.14,East,90,11.0,17.0,59,0.00,,,0.57,meteohub,2013-01-28 18:18:00,
2013-01-28 13:23:00,79.0,63.9,30.14,East,90,12.0,17.0,60,0.00,,,0.57,meteohub,2013-01-28 18:23:00,
2013-01-28 13:28:00,78.8,64.8,30.14,East,90,11.0,17.0,62,0.00,,,0.57,meteohub,2013-01-28 18:28:00,
2013-01-28 13:34:00,79.0,65.3,30.14,SE,135,10.0,16.0,63,0.00,,,0.57,meteohub,2013-01-28 18:34:00,
2013-01-28 13:39:00,79.2,65.5,30.13,East,90,16.0,16.0,63,0.00,,,0.57,meteohub,2013-01-28 18:39:00,
2013-01-28 13:44:00,78.4,63.9,30.13,East,90,8.0,16.0,61,0.00,,,0.57,meteohub,2013-01-28 18:44:00,
2013-01-28 13:49:00,78.6,64.9,30.14,East,90,11.0,16.0,63,0.00,,,0.57,meteohub,2013-01-28 18:49:00,
2013-01-28 13:54:00,78.6,65.8,30.13,East,90,8.0,16.0,65,0.00,,,0.57,meteohub,2013-01-28 18:54:00,
2013-01-28 13:59:00,78.4,65.7,30.13,SE,135,10.0,15.0,65,0.00,,,0.57,meteohub,2013-01-28 18:59:00,
2013-01-28 14:04:00,78.8,66.0,30.13,East,90,9.0,15.0,65,0.00,,,0.57,meteohub,2013-01-28 19:04:00,
2013-01-28 14:09:00,79.0,65.8,30.12,ENE,68,14.0,14.0,64,0.00,,,0.57,meteohub,2013-01-28 19:09:00,
2013-01-28 14:14:00,78.6,65.5,30.12,East,90,14.0,14.0,64,0.00,,,0.57,meteohub,2013-01-28 19:14:00,
2013-01-28 14:19:00,79.2,66.4,30.12,East,90,11.0,15.0,65,0.00,,,0.57,meteohub,2013-01-28 19:19:00,
2013-01-28 14:25:00,79.9,67.1,30.12,East,90,5.0,15.0,65,0.00,,,0.57,meteohub,2013-01-28 19:25:00,
2013-01-28 14:30:00,80.1,66.4,30.12,East,90,13.0,15.0,63,0.00,,,0.57,meteohub,2013-01-28 19:30:00,
2013-01-28 14:35:00,79.0,66.6,30.12,East,90,9.0,13.0,66,0.00,,,0.57,meteohub,2013-01-28 19:35:00,
2013-01-28 14:40:00,79.0,66.2,30.12,East,90,11.0,14.0,65,0.00,,,0.57,meteohub,2013-01-28 19:40:00,
2013-01-28 14:45:00,78.8,66.6,30.12,North,0,11.0,15.0,66,0.00,,,0.57,meteohub,2013-01-28 19:45:00,
2013-01-28 14:50:00,78.8,65.7,30.12,East,90,13.0,15.0,64,0.00,,,0.57,meteohub,2013-01-28 19:50:00,
2013-01-28 14:55:00,79.3,66.6,30.12,SE,135,6.0,15.0,65,0.00,,,0.57,meteohub,2013-01-28 19:55:00,
2013-01-28 15:00:00,79.5,66.2,30.11,South,180,7.0,15.0,64,0.00,,,0.57,meteohub,2013-01-28 20:00:00,
2013-01-28 15:05:00,79.7,66.9,30.12,East,90,9.0,15.0,65,0.00,,,0.57,meteohub,2013-01-28 20:05:00,
2013-01-28 15:11:00,79.3,65.1,30.11,East,90,11.0,15.0,62,0.00,,,0.57,meteohub,2013-01-28 20:11:00,
2013-01-28 15:16:00,79.5,65.3,30.11,East,90,9.0,13.0,62,0.00,,,0.57,meteohub,2013-01-28 20:16:00,
2013-01-28 15:21:00,80.1,65.5,30.11,East,90,8.0,13.0,61,0.00,,,0.57,meteohub,2013-01-28 20:21:00,
2013-01-28 15:26:00,79.7,65.1,30.11,East,90,10.0,13.0,61,0.00,,,0.57,meteohub,2013-01-28 20:26:00,
2013-01-28 15:31:00,79.2,65.8,30.11,South,180,7.0,13.0,64,0.00,,,0.57,meteohub,2013-01-28 20:31:00,
2013-01-28 15:36:00,79.3,64.8,30.11,North,0,8.0,13.0,61,0.00,,,0.57,meteohub,2013-01-28 20:36:00,
2013-01-28 15:41:00,79.2,65.5,30.11,East,90,11.0,13.0,63,0.00,,,0.57,meteohub,2013-01-28 20:41:00,
2013-01-28 15:46:00,78.8,65.1,30.11,East,90,10.0,13.0,63,0.00,,,0.57,meteohub,2013-01-28 20:46:00,
2013-01-28 15:52:00,79.0,65.3,30.11,East,90,9.0,13.0,63,0.00,,,0.57,meteohub,2013-01-28 20:52:00,
2013-01-28 15:57:00,79.5,65.3,30.11,East,90,11.0,13.0,62,0.00,,,0.57,meteohub,2013-01-28 20:57:00,
2013-01-28 16:02:00,79.3,65.1,30.11,East,90,9.0,13.0,62,0.00,,,0.57,meteohub,2013-01-28 21:02:00,
2013-01-28 16:07:00,79.0,64.8,30.11,East,90,9.0,12.0,62,0.00,,,0.57,meteohub,2013-01-28 21:07:00,
2013-01-28 16:12:00,78.8,65.1,30.11,SE,135,9.0,12.0,63,0.00,,,0.57,meteohub,2013-01-28 21:12:00,
2013-01-28 16:17:00,78.6,64.9,30.11,East,90,11.0,15.0,63,0.00,,,0.57,meteohub,2013-01-28 21:17:00,
2013-01-28 16:22:00,78.6,65.5,30.11,East,90,8.0,15.0,64,0.00,,,0.57,meteohub,2013-01-28 21:22:00,
2013-01-28 16:28:00,78.6,65.5,30.11,East,90,8.0,15.0,64,0.00,,,0.57,meteohub,2013-01-28 21:28:00,
2013-01-28 16:33:00,78.4,65.3,30.11,East,90,8.0,15.0,64,0.00,,,0.57,meteohub,2013-01-28 21:33:00,
2013-01-28 16:38:00,78.4,64.8,30.11,East,90,9.0,15.0,63,0.00,,,0.57,meteohub,2013-01-28 21:38:00,
2013-01-28 16:43:00,79.0,64.8,30.11,East,90,6.0,15.0,62,0.00,,,0.57,meteohub,2013-01-28 21:43:00,
2013-01-28 16:48:00,79.0,64.4,30.11,East,90,11.0,15.0,61,0.00,,,0.57,meteohub,2013-01-28 21:48:00,
2013-01-28 16:53:00,78.4,64.4,30.11,SE,135,11.0,15.0,62,0.00,,,0.57,meteohub,2013-01-28 21:53:00,
2013-01-28 16:58:00,78.4,64.8,30.11,East,90,10.0,15.0,63,0.00,,,0.57,meteohub,2013-01-28 21:58:00,
2013-01-28 17:03:00,77.9,64.8,30.11,East,90,10.0,15.0,64,0.00,,,0.57,meteohub,2013-01-28 22:03:00,
2013-01-28 17:08:00,77.9,64.8,30.11,SE,135,4.0,15.0,64,0.00,,,0.57,meteohub,2013-01-28 22:08:00,
2013-01-28 17:14:00,77.9,64.8,30.11,East,90,7.0,15.0,64,0.00,,,0.57,meteohub,2013-01-28 22:14:00,
2013-01-28 17:19:00,77.7,65.5,30.12,SE,135,4.0,15.0,66,0.00,,,0.57,meteohub,2013-01-28 22:19:00,
2013-01-28 17:24:00,77.7,65.5,30.12,East,90,10.0,15.0,66,0.00,,,0.57,meteohub,2013-01-28 22:24:00,
2013-01-28 17:29:00,77.4,66.0,30.12,SE,135,7.0,11.0,68,0.00,,,0.57,meteohub,2013-01-28 22:29:00,
2013-01-28 17:34:00,76.8,65.8,30.11,East,90,8.0,11.0,69,0.00,,,0.57,meteohub,2013-01-28 22:34:00,
2013-01-28 17:39:00,75.9,65.8,30.12,East,90,10.0,11.0,71,0.00,,,0.57,meteohub,2013-01-28 22:39:00,
2013-01-28 17:44:00,75.4,66.2,30.12,SE,135,11.0,13.0,73,0.00,,,0.57,meteohub,2013-01-28 22:44:00,
2013-01-28 17:50:00,75.2,66.0,30.12,East,90,7.0,13.0,73,0.00,,,0.57,meteohub,2013-01-28 22:50:00,
2013-01-28 17:55:00,75.0,66.2,30.12,East,90,6.0,13.0,74,0.00,,,0.57,meteohub,2013-01-28 22:55:00,
2013-01-28 18:00:00,74.8,66.0,30.13,East,90,10.0,11.0,74,0.00,,,0.57,meteohub,2013-01-28 23:00:00,
2013-01-28 18:05:00,74.7,66.2,30.12,SSE,158,6.0,11.0,75,0.00,,,0.57,meteohub,2013-01-28 23:05:00,
2013-01-28 18:10:00,74.7,66.2,30.13,ESE,113,7.0,11.0,75,0.00,,,0.57,meteohub,2013-01-28 23:10:00,
2013-01-28 18:15:00,74.7,66.2,30.12,East,90,4.0,11.0,75,0.00,,,0.57,meteohub,2013-01-28 23:15:00,
2013-01-28 18:20:00,74.7,66.2,30.12,East,90,9.0,11.0,75,0.00,,,0.57,meteohub,2013-01-28 23:20:00,
2013-01-28 18:25:00,74.7,66.2,30.12,East,90,7.0,11.0,75,0.00,,,0.57,meteohub,2013-01-28 23:25:00,
2013-01-28 18:30:00,74.5,66.4,30.12,East,90,7.0,10.0,76,0.00,,,0.57,meteohub,2013-01-28 23:30:00,
2013-01-28 18:35:00,74.5,66.4,30.12,East,90,6.0,10.0,76,0.00,,,0.57,meteohub,2013-01-28 23:35:00,
2013-01-28 18:41:00,74.5,66.4,30.12,East,90,5.0,9.0,76,0.00,,,0.57,meteohub,2013-01-28 23:41:00,
2013-01-28 18:46:00,74.5,66.4,30.12,East,90,5.0,9.0,76,0.00,,,0.57,meteohub,2013-01-28 23:46:00,
2013-01-28 18:51:00,74.5,66.4,30.12,East,90,7.0,8.0,76,0.00,,,0.57,meteohub,2013-01-28 23:51:00,
2013-01-28 18:56:00,74.5,66.7,30.13,East,90,4.0,8.0,77,0.00,,,0.57,meteohub,2013-01-28 23:56:00,
2013-01-28 19:01:00,74.5,66.7,30.12,North,0,6.0,8.0,77,0.00,,,0.57,meteohub,2013-01-29 00:01:00,
2013-01-28 19:06:00,74.5,66.7,30.13,NE,45,4.0,8.0,77,0.00,,,0.00,meteohub,2013-01-29 00:06:00,
2013-01-28 19:11:00,74.5,66.7,30.13,NE,45,8.0,8.0,77,0.00,,,0.00,meteohub,2013-01-29 00:11:00,
2013-01-28 19:16:00,74.5,67.1,30.13,SE,135,7.0,11.0,78,0.00,,,0.00,meteohub,2013-01-29 00:16:00,
2013-01-28 19:22:00,74.5,67.1,30.13,East,90,8.0,11.0,78,0.00,,,0.00,meteohub,2013-01-29 00:22:00,
2013-01-28 19:27:00,74.7,67.3,30.12,East,90,8.0,11.0,78,0.00,,,0.00,meteohub,2013-01-29 00:27:00,
2013-01-28 19:32:00,74.7,67.3,30.12,East,90,8.0,12.0,78,0.00,,,0.00,meteohub,2013-01-29 00:32:00,
2013-01-28 19:37:00,74.5,67.1,30.12,East,90,4.0,12.0,78,0.00,,,0.00,meteohub,2013-01-29 00:37:00,
2013-01-28 19:42:00,74.5,67.1,30.13,East,90,5.0,13.0,78,0.00,,,0.00,meteohub,2013-01-29 00:42:00,
2013-01-28 19:47:00,74.5,67.5,30.13,East,90,8.0,13.0,79,0.00,,,0.00,meteohub,2013-01-29 00:47:00,
2013-01-28 19:52:00,74.5,67.5,30.13,SE,135,11.0,13.0,79,0.00,,,0.00,meteohub,2013-01-29 00:52:00,
2013-01-28 19:57:00,74.5,67.5,30.13,East,90,6.0,11.0,79,0.00,,,0.00,meteohub,2013-01-29 00:57:00,
2013-01-28 20:02:00,74.3,67.6,30.13,East,90,4.0,11.0,80,0.00,,,0.00,meteohub,2013-01-29 01:02:00,
2013-01-28 20:07:00,74.3,67.6,30.13,East,90,6.0,11.0,80,0.00,,,0.00,meteohub,2013-01-29 01:07:00,
2013-01-28 20:12:00,74.3,67.6,30.13,NE,45,6.0,9.0,80,0.00,,,0.00,meteohub,2013-01-29 01:12:00,
2013-01-28 20:17:00,74.1,67.6,30.13,East,90,5.0,9.0,80,0.00,,,0.00,meteohub,2013-01-29 01:17:00,
2013-01-28 20:22:00,74.1,67.6,30.13,East,90,4.0,9.0,80,0.00,,,0.00,meteohub,2013-01-29 01:22:00,
2013-01-28 20:27:00,74.1,67.6,30.13,East,90,8.0,8.0,80,0.00,,,0.00,meteohub,2013-01-29 01:27:00,
2013-01-28 20:32:00,74.1,67.6,30.13,East,90,9.0,9.0,80,0.00,,,0.00,meteohub,2013-01-29 01:32:00,
2013-01-28 20:37:00,74.1,68.0,30.13,East,90,6.0,10.0,81,0.00,,,0.00,meteohub,2013-01-29 01:37:00,
2013-01-28 20:42:00,73.9,67.8,30.13,East,90,5.0,10.0,81,0.00,,,0.00,meteohub,2013-01-29 01:42:00,
2013-01-28 20:47:00,73.8,67.6,30.13,SE,135,5.0,10.0,81,0.00,,,0.00,meteohub,2013-01-29 01:47:00,
2013-01-28 20:52:00,73.8,68.0,30.13,East,90,7.0,8.0,82,0.00,,,0.00,meteohub,2013-01-29 01:52:00,
2013-01-28 20:57:00,73.8,68.0,30.13,East,90,7.0,8.0,82,0.00,,,0.00,meteohub,2013-01-29 01:57:00,
2013-01-28 21:02:00,73.8,68.0,30.13,East,90,3.0,8.0,82,0.00,,,0.00,meteohub,2013-01-29 02:02:00,
2013-01-28 21:07:00,73.6,67.8,30.13,East,90,7.0,8.0,82,0.00,,,0.00,meteohub,2013-01-29 02:07:00,
2013-01-28 21:12:00,73.8,68.0,30.12,East,90,4.0,8.0,82,0.00,,,0.00,meteohub,2013-01-29 02:12:00,
2013-01-28 21:17:00,73.6,67.8,30.13,East,90,5.0,8.0,82,0.00,,,0.00,meteohub,2013-01-29 02:17:00,
2013-01-28 21:22:00,73.8,68.0,30.13,SE,135,5.0,8.0,82,0.00,,,0.00,meteohub,2013-01-29 02:22:00,
2013-01-28 21:27:00,73.6,67.8,30.13,NE,45,4.0,8.0,82,0.00,,,0.00,meteohub,2013-01-29 02:27:00,
2013-01-28 21:32:00,73.6,68.2,30.13,East,90,8.0,8.0,83,0.00,,,0.00,meteohub,2013-01-29 02:32:00,
2013-01-28 21:37:00,73.8,68.4,30.13,East,90,8.0,10.0,83,0.00,,,0.00,meteohub,2013-01-29 02:37:00,
2013-01-28 21:42:00,73.8,68.0,30.13,East,90,7.0,10.0,82,0.00,,,0.00,meteohub,2013-01-29 02:42:00,
2013-01-28 21:47:00,73.8,68.0,30.12,East,90,8.0,10.0,82,0.00,,,0.00,meteohub,2013-01-29 02:47:00,
2013-01-28 21:52:00,73.8,68.0,30.13,East,90,8.0,9.0,82,0.00,,,0.00,meteohub,2013-01-29 02:52:00,
2013-01-28 21:57:00,73.8,68.4,30.12,East,90,4.0,8.0,83,0.00,,,0.00,meteohub,2013-01-29 02:57:00,
2013-01-28 22:02:00,73.6,68.2,30.13,ENE,68,4.0,8.0,83,0.00,,,0.00,meteohub,2013-01-29 03:02:00,
2013-01-28 22:07:00,73.8,68.4,30.13,SE,135,4.0,8.0,83,0.00,,,0.00,meteohub,2013-01-29 03:07:00,
2013-01-28 22:12:00,73.6,68.2,30.13,East,90,8.0,8.0,83,0.00,,,0.00,meteohub,2013-01-29 03:12:00,
2013-01-28 22:17:00,73.8,68.4,30.13,East,90,7.0,8.0,83,0.00,,,0.00,meteohub,2013-01-29 03:17:00,
2013-01-28 22:22:00,73.6,68.2,30.13,East,90,5.0,8.0,83,0.00,,,0.00,meteohub,2013-01-29 03:22:00,
2013-01-28 22:27:00,73.6,68.2,30.13,SE,135,7.0,9.0,83,0.00,,,0.00,meteohub,2013-01-29 03:27:00,
2013-01-28 22:32:00,73.4,68.2,30.13,SE,135,4.0,9.0,84,0.00,,,0.00,meteohub,2013-01-29 03:32:00,
2013-01-28 22:37:00,73.6,68.4,30.13,East,90,6.0,9.0,84,0.00,,,0.00,meteohub,2013-01-29 03:37:00,
2013-01-28 22:42:00,73.6,68.4,30.13,East,90,8.0,9.0,84,0.00,,,0.00,meteohub,2013-01-29 03:42:00,
2013-01-28 22:47:00,73.6,68.4,30.13,East,90,5.0,9.0,84,0.00,,,0.00,meteohub,2013-01-29 03:47:00,
2013-01-28 22:52:00,73.6,68.4,30.12,East,90,4.0,10.0,84,0.00,,,0.00,meteohub,2013-01-29 03:52:00,
2013-01-28 22:57:00,73.4,68.5,30.13,East,90,6.0,10.0,85,0.00,,,0.00,meteohub,2013-01-29 03:57:00,
2013-01-28 23:02:00,73.4,68.5,30.13,NE,45,8.0,10.0,85,0.00,,,0.00,meteohub,2013-01-29 04:02:00,
2013-01-28 23:07:00,73.4,68.5,30.13,NE,45,7.0,11.0,85,0.00,,,0.00,meteohub,2013-01-29 04:07:00,
2013-01-28 23:12:00,73.4,68.5,30.13,SE,135,5.0,11.0,85,0.00,,,0.00,meteohub,2013-01-29 04:12:00,
2013-01-28 23:17:00,73.4,68.9,30.13,East,90,6.0,11.0,86,0.00,,,0.00,meteohub,2013-01-29 04:17:00,
2013-01-28 23:22:00,73.6,68.7,30.13,East,90,6.0,8.0,85,0.00,,,0.00,meteohub,2013-01-29 04:22:00,
2013-01-28 23:27:00,73.4,68.5,30.13,East,90,4.0,8.0,85,0.00,,,0.00,meteohub,2013-01-29 04:27:00,
2013-01-28 23:33:00,73.4,68.9,30.12,NE,45,5.0,7.0,86,0.00,,,0.00,meteohub,2013-01-29 04:33:00,
2013-01-28 23:38:00,73.4,68.5,30.12,SE,135,7.0,8.0,85,0.00,,,0.00,meteohub,2013-01-29 04:38:00,
2013-01-28 23:43:00,73.6,68.7,30.13,East,90,5.0,11.0,85,0.00,,,0.00,meteohub,2013-01-29 04:43:00,
2013-01-28 23:48:00,73.4,68.5,30.12,East,90,5.0,11.0,85,0.00,,,0.00,meteohub,2013-01-29 04:48:00,
2013-01-28 23:53:00,73.4,68.9,30.12,ESE,113,6.0,11.0,86,0.00,,,0.00,meteohub,2013-01-29 04:53:00,
2013-01-28 23:58:00,73.4,68.9,30.12,East,90,4.0,9.0,86,0.00,,,0.00,meteohub,2013-01-29 04:58:00,